METAR Data
IDs: Format: Raw Decoded Include TAF

Data at: 1604 UTC 18 Feb 2019

METAR for:KPEA (Pella Muni, IA, US)
Text:KPEA 181555Z AUTO 31009KT 10SM CLR M08/M11 A3043 RMK AO2 T10801108
Temperature: -8.0°C ( 18°F)
Dewpoint:-10.8°C ( 13°F) [RH = 80%]
Pressure (altimeter):30.43 inches Hg (1030.6 mb)
Winds:from the NW (310 degrees) at 10 MPH (9 knots; 4.6 m/s)
Visibility:10 or more sm (16+ km)
Ceiling:at least 12,000 feet AGL
Clouds:sky clear below 12,000 feet AGL
QC Flag:automated observation with no human augmentation